sensor_id;sensor_type;location;lat;lon;timestamp;P1;durP1;ratioP1;P2;durP2;ratioP2
3637;SDS011;1835;50.068;8.154;2023-02-11T00:01:19;23.20;;;10.37;;
3637;SDS011;1835;50.068;8.154;2023-02-11T00:03:52;21.47;;;10.33;;
3637;SDS011;1835;50.068;8.154;2023-02-11T00:06:20;28.37;;;11.93;;
3637;SDS011;1835;50.068;8.154;2023-02-11T00:08:49;28.17;;;11.67;;
3637;SDS011;1835;50.068;8.154;2023-02-11T00:11:18;25.50;;;12.10;;
3637;SDS011;1835;50.068;8.154;2023-02-11T00:13:50;30.33;;;12.23;;
3637;SDS011;1835;50.068;8.154;2023-02-11T00:16:19;31.63;;;12.60;;
3637;SDS011;1835;50.068;8.154;2023-02-11T00:18:48;27.30;;;11.27;;
3637;SDS011;1835;50.068;8.154;2023-02-11T00:21:20;32.20;;;13.30;;
3637;SDS011;1835;50.068;8.154;2023-02-11T00:23:50;29.83;;;13.80;;
3637;SDS011;1835;50.068;8.154;2023-02-11T00:26:22;24.93;;;11.57;;
3637;SDS011;1835;50.068;8.154;2023-02-11T00:28:53;32.50;;;12.10;;
3637;SDS011;1835;50.068;8.154;2023-02-11T00:31:22;33.10;;;13.17;;
3637;SDS011;1835;50.068;8.154;2023-02-11T00:33:52;36.07;;;14.90;;
3637;SDS011;1835;50.068;8.154;2023-02-11T00:36:22;38.77;;;13.60;;
3637;SDS011;1835;50.068;8.154;2023-02-11T00:38:53;41.83;;;16.63;;
3637;SDS011;1835;50.068;8.154;2023-02-11T00:41:23;52.07;;;15.40;;
3637;SDS011;1835;50.068;8.154;2023-02-11T00:43:52;44.00;;;15.83;;
3637;SDS011;1835;50.068;8.154;2023-02-11T00:46:20;38.90;;;15.20;;
3637;SDS011;1835;50.068;8.154;2023-02-11T00:48:49;36.90;;;14.77;;
3637;SDS011;1835;50.068;8.154;2023-02-11T00:51:20;38.27;;;16.60;;
3637;SDS011;1835;50.068;8.154;2023-02-11T00:53:48;46.20;;;16.47;;
3637;SDS011;1835;50.068;8.154;2023-02-11T00:56:16;38.23;;;15.83;;
3637;SDS011;1835;50.068;8.154;2023-02-11T00:58:46;40.50;;;13.77;;
3637;SDS011;1835;50.068;8.154;2023-02-11T01:01:14;43.73;;;15.63;;
3637;SDS011;1835;50.068;8.154;2023-02-11T01:03:42;40.57;;;13.60;;
3637;SDS011;1835;50.068;8.154;2023-02-11T01:06:10;41.80;;;15.27;;
3637;SDS011;1835;50.068;8.154;2023-02-11T01:08:39;32.83;;;14.23;;
3637;SDS011;1835;50.068;8.154;2023-02-11T01:11:11;40.77;;;16.47;;
3637;SDS011;1835;50.068;8.154;2023-02-11T01:13:41;43.07;;;16.57;;
3637;SDS011;1835;50.068;8.154;2023-02-11T01:16:11;38.03;;;16.00;;
3637;SDS011;1835;50.068;8.154;2023-02-11T01:18:41;44.17;;;18.40;;
3637;SDS011;1835;50.068;8.154;2023-02-11T01:21:09;36.43;;;16.87;;
3637;SDS011;1835;50.068;8.154;2023-02-11T01:23:38;40.93;;;17.37;;
3637;SDS011;1835;50.068;8.154;2023-02-11T01:26:06;37.53;;;16.17;;
3637;SDS011;1835;50.068;8.154;2023-02-11T01:28:34;44.77;;;16.10;;
3637;SDS011;1835;50.068;8.154;2023-02-11T01:31:03;38.67;;;15.73;;
3637;SDS011;1835;50.068;8.154;2023-02-11T01:33:32;45.53;;;18.67;;
3637;SDS011;1835;50.068;8.154;2023-02-11T01:36:01;41.57;;;15.20;;
3637;SDS011;1835;50.068;8.154;2023-02-11T01:38:34;39.50;;;16.73;;
3637;SDS011;1835;50.068;8.154;2023-02-11T01:41:10;46.83;;;18.10;;
3637;SDS011;1835;50.068;8.154;2023-02-11T01:43:41;48.90;;;17.63;;
3637;SDS011;1835;50.068;8.154;2023-02-11T01:46:31;36.20;;;15.43;;
3637;SDS011;1835;50.068;8.154;2023-02-11T01:49:06;51.87;;;17.07;;
3637;SDS011;1835;50.068;8.154;2023-02-11T01:51:40;48.27;;;16.97;;
3637;SDS011;1835;50.068;8.154;2023-02-11T01:54:13;40.00;;;15.53;;
3637;SDS011;1835;50.068;8.154;2023-02-11T01:57:04;46.07;;;16.60;;
3637;SDS011;1835;50.068;8.154;2023-02-11T01:59:53;47.00;;;17.87;;
3637;SDS011;1835;50.068;8.154;2023-02-11T02:02:39;47.77;;;19.00;;
3637;SDS011;1835;50.068;8.154;2023-02-11T02:05:18;39.17;;;16.93;;
3637;SDS011;1835;50.068;8.154;2023-02-11T02:07:54;43.03;;;17.50;;
3637;SDS011;1835;50.068;8.154;2023-02-11T02:10:29;36.27;;;15.67;;
3637;SDS011;1835;50.068;8.154;2023-02-11T02:13:00;40.20;;;17.20;;
3637;SDS011;1835;50.068;8.154;2023-02-11T02:15:29;39.13;;;17.97;;
3637;SDS011;1835;50.068;8.154;2023-02-11T02:18:01;40.27;;;16.33;;
3637;SDS011;1835;50.068;8.154;2023-02-11T02:24:19;45.73;;;15.53;;
3637;SDS011;1835;50.068;8.154;2023-02-11T02:27:07;37.67;;;15.70;;
3637;SDS011;1835;50.068;8.154;2023-02-11T02:30:13;37.13;;;14.77;;
3637;SDS011;1835;50.068;8.154;2023-02-11T02:33:03;45.70;;;17.10;;
3637;SDS011;1835;50.068;8.154;2023-02-11T02:35:52;42.37;;;15.30;;
3637;SDS011;1835;50.068;8.154;2023-02-11T02:38:35;40.80;;;15.53;;
3637;SDS011;1835;50.068;8.154;2023-02-11T02:41:09;45.53;;;16.83;;
3637;SDS011;1835;50.068;8.154;2023-02-11T02:43:41;47.87;;;17.03;;
3637;SDS011;1835;50.068;8.154;2023-02-11T02:46:12;42.27;;;16.00;;
3637;SDS011;1835;50.068;8.154;2023-02-11T02:48:46;41.43;;;16.77;;
3637;SDS011;1835;50.068;8.154;2023-02-11T02:51:26;47.83;;;18.60;;
3637;SDS011;1835;50.068;8.154;2023-02-11T02:54:18;42.53;;;16.13;;
3637;SDS011;1835;50.068;8.154;2023-02-11T02:57:07;34.70;;;15.23;;
3637;SDS011;1835;50.068;8.154;2023-02-11T02:59:49;33.67;;;14.43;;
3637;SDS011;1835;50.068;8.154;2023-02-11T03:02:31;41.50;;;16.17;;
3637;SDS011;1835;50.068;8.154;2023-02-11T03:05:09;44.87;;;15.80;;
3637;SDS011;1835;50.068;8.154;2023-02-11T03:07:45;41.97;;;15.30;;
3637;SDS011;1835;50.068;8.154;2023-02-11T03:10:21;38.57;;;14.63;;
3637;SDS011;1835;50.068;8.154;2023-02-11T03:12:54;31.87;;;14.27;;
3637;SDS011;1835;50.068;8.154;2023-02-11T03:15:24;40.40;;;15.60;;
3637;SDS011;1835;50.068;8.154;2023-02-11T03:17:57;32.57;;;14.57;;
3637;SDS011;1835;50.068;8.154;2023-02-11T03:20:28;33.83;;;15.30;;
3637;SDS011;1835;50.068;8.154;2023-02-11T03:23:01;35.17;;;15.03;;
3637;SDS011;1835;50.068;8.154;2023-02-11T03:25:35;39.60;;;14.10;;
3637;SDS011;1835;50.068;8.154;2023-02-11T03:28:08;43.53;;;15.20;;
3637;SDS011;1835;50.068;8.154;2023-02-11T03:30:44;34.50;;;15.87;;
3637;SDS011;1835;50.068;8.154;2023-02-11T03:33:19;43.47;;;14.70;;
3637;SDS011;1835;50.068;8.154;2023-02-11T03:35:54;35.03;;;15.70;;
3637;SDS011;1835;50.068;8.154;2023-02-11T03:38:27;38.43;;;16.53;;
3637;SDS011;1835;50.068;8.154;2023-02-11T03:41:00;34.40;;;14.20;;
3637;SDS011;1835;50.068;8.154;2023-02-11T03:43:32;34.73;;;13.37;;
3637;SDS011;1835;50.068;8.154;2023-02-11T03:46:04;40.40;;;15.53;;
3637;SDS011;1835;50.068;8.154;2023-02-11T03:48:34;37.53;;;16.73;;
3637;SDS011;1835;50.068;8.154;2023-02-11T03:51:07;36.20;;;14.80;;
3637;SDS011;1835;50.068;8.154;2023-02-11T03:53:37;46.03;;;17.10;;
3637;SDS011;1835;50.068;8.154;2023-02-11T03:56:10;47.97;;;16.60;;
3637;SDS011;1835;50.068;8.154;2023-02-11T03:58:43;35.63;;;15.00;;
3637;SDS011;1835;50.068;8.154;2023-02-11T04:01:11;43.07;;;15.87;;
3637;SDS011;1835;50.068;8.154;2023-02-11T04:03:39;31.47;;;14.77;;
3637;SDS011;1835;50.068;8.154;2023-02-11T04:06:09;33.30;;;14.50;;
3637;SDS011;1835;50.068;8.154;2023-02-11T04:08:37;42.90;;;13.33;;
3637;SDS011;1835;50.068;8.154;2023-02-11T04:11:05;31.50;;;13.57;;
3637;SDS011;1835;50.068;8.154;2023-02-11T04:13:33;33.07;;;11.60;;
3637;SDS011;1835;50.068;8.154;2023-02-11T04:16:01;37.30;;;14.47;;
3637;SDS011;1835;50.068;8.154;2023-02-11T04:18:29;33.80;;;14.13;;
3637;SDS011;1835;50.068;8.154;2023-02-11T04:20:57;29.67;;;13.20;;
3637;SDS011;1835;50.068;8.154;2023-02-11T04:23:26;36.20;;;13.73;;
3637;SDS011;1835;50.068;8.154;2023-02-11T04:25:54;40.43;;;14.63;;
3637;SDS011;1835;50.068;8.154;2023-02-11T04:28:22;29.30;;;13.33;;
3637;SDS011;1835;50.068;8.154;2023-02-11T04:30:51;30.87;;;13.90;;
3637;SDS011;1835;50.068;8.154;2023-02-11T04:33:20;33.97;;;15.30;;
3637;SDS011;1835;50.068;8.154;2023-02-11T04:35:48;47.10;;;15.93;;
3637;SDS011;1835;50.068;8.154;2023-02-11T04:38:16;45.87;;;16.57;;
3637;SDS011;1835;50.068;8.154;2023-02-11T04:40:46;37.07;;;15.33;;
3637;SDS011;1835;50.068;8.154;2023-02-11T04:43:14;45.63;;;14.67;;
3637;SDS011;1835;50.068;8.154;2023-02-11T04:45:42;35.97;;;15.50;;
3637;SDS011;1835;50.068;8.154;2023-02-11T04:48:10;45.17;;;17.27;;
3637;SDS011;1835;50.068;8.154;2023-02-11T04:50:38;68.10;;;19.60;;
3637;SDS011;1835;50.068;8.154;2023-02-11T04:53:06;32.70;;;15.10;;
3637;SDS011;1835;50.068;8.154;2023-02-11T04:55:34;31.30;;;14.37;;
3637;SDS011;1835;50.068;8.154;2023-02-11T04:58:04;35.83;;;15.33;;
3637;SDS011;1835;50.068;8.154;2023-02-11T05:00:32;40.83;;;15.10;;
3637;SDS011;1835;50.068;8.154;2023-02-11T05:03:00;38.73;;;14.37;;
3637;SDS011;1835;50.068;8.154;2023-02-11T05:05:28;40.17;;;15.53;;
3637;SDS011;1835;50.068;8.154;2023-02-11T05:07:56;37.77;;;15.37;;
3637;SDS011;1835;50.068;8.154;2023-02-11T05:10:24;40.80;;;14.93;;
3637;SDS011;1835;50.068;8.154;2023-02-11T05:12:52;36.30;;;14.60;;
3637;SDS011;1835;50.068;8.154;2023-02-11T05:15:22;33.40;;;14.93;;
3637;SDS011;1835;50.068;8.154;2023-02-11T05:17:50;45.20;;;15.87;;
3637;SDS011;1835;50.068;8.154;2023-02-11T05:20:19;49.13;;;15.93;;
3637;SDS011;1835;50.068;8.154;2023-02-11T05:22:47;38.93;;;15.13;;
3637;SDS011;1835;50.068;8.154;2023-02-11T05:25:15;41.73;;;15.20;;
3637;SDS011;1835;50.068;8.154;2023-02-11T05:27:43;34.37;;;15.10;;
3637;SDS011;1835;50.068;8.154;2023-02-11T05:30:11;50.53;;;16.60;;
3637;SDS011;1835;50.068;8.154;2023-02-11T05:32:41;46.53;;;15.10;;
3637;SDS011;1835;50.068;8.154;2023-02-11T05:35:09;40.37;;;13.60;;
3637;SDS011;1835;50.068;8.154;2023-02-11T05:37:37;42.40;;;16.00;;
3637;SDS011;1835;50.068;8.154;2023-02-11T05:40:06;44.13;;;16.53;;
3637;SDS011;1835;50.068;8.154;2023-02-11T05:42:35;39.00;;;15.37;;
3637;SDS011;1835;50.068;8.154;2023-02-11T05:45:03;32.33;;;14.10;;
3637;SDS011;1835;50.068;8.154;2023-02-11T05:47:33;43.33;;;15.63;;
3637;SDS011;1835;50.068;8.154;2023-02-11T05:50:03;39.03;;;15.17;;
3637;SDS011;1835;50.068;8.154;2023-02-11T05:52:31;45.13;;;15.40;;
3637;SDS011;1835;50.068;8.154;2023-02-11T05:54:59;28.60;;;13.60;;
3637;SDS011;1835;50.068;8.154;2023-02-11T05:57:27;40.90;;;15.10;;
3637;SDS011;1835;50.068;8.154;2023-02-11T05:59:55;34.57;;;14.40;;
3637;SDS011;1835;50.068;8.154;2023-02-11T06:02:23;42.27;;;16.20;;
3637;SDS011;1835;50.068;8.154;2023-02-11T06:04:51;34.33;;;14.63;;
3637;SDS011;1835;50.068;8.154;2023-02-11T06:07:21;39.80;;;15.27;;
3637;SDS011;1835;50.068;8.154;2023-02-11T06:09:49;44.17;;;15.40;;
3637;SDS011;1835;50.068;8.154;2023-02-11T06:12:17;43.33;;;16.33;;
3637;SDS011;1835;50.068;8.154;2023-02-11T06:14:45;37.33;;;15.70;;
3637;SDS011;1835;50.068;8.154;2023-02-11T06:17:13;41.10;;;15.83;;
3637;SDS011;1835;50.068;8.154;2023-02-11T06:19:41;39.83;;;14.97;;
3637;SDS011;1835;50.068;8.154;2023-02-11T06:22:09;32.20;;;14.63;;
3637;SDS011;1835;50.068;8.154;2023-02-11T06:24:39;37.40;;;13.80;;
3637;SDS011;1835;50.068;8.154;2023-02-11T06:27:26;42.90;;;15.33;;
3637;SDS011;1835;50.068;8.154;2023-02-11T06:29:54;44.27;;;15.43;;
3637;SDS011;1835;50.068;8.154;2023-02-11T06:32:22;41.53;;;16.57;;
3637;SDS011;1835;50.068;8.154;2023-02-11T06:35:08;40.97;;;14.90;;
3637;SDS011;1835;50.068;8.154;2023-02-11T06:37:38;35.33;;;15.07;;
3637;SDS011;1835;50.068;8.154;2023-02-11T06:40:08;34.17;;;15.57;;
3637;SDS011;1835;50.068;8.154;2023-02-11T06:42:36;42.07;;;15.47;;
3637;SDS011;1835;50.068;8.154;2023-02-11T06:45:05;33.43;;;15.10;;
3637;SDS011;1835;50.068;8.154;2023-02-11T06:47:36;44.93;;;16.30;;
3637;SDS011;1835;50.068;8.154;2023-02-11T06:50:05;39.37;;;15.93;;
3637;SDS011;1835;50.068;8.154;2023-02-11T06:52:35;40.53;;;15.63;;
3637;SDS011;1835;50.068;8.154;2023-02-11T06:55:03;33.53;;;15.07;;
3637;SDS011;1835;50.068;8.154;2023-02-11T06:57:33;39.40;;;15.73;;
3637;SDS011;1835;50.068;8.154;2023-02-11T07:00:01;40.03;;;15.53;;
3637;SDS011;1835;50.068;8.154;2023-02-11T07:02:31;36.17;;;15.20;;
3637;SDS011;1835;50.068;8.154;2023-02-11T07:04:59;42.27;;;16.23;;
3637;SDS011;1835;50.068;8.154;2023-02-11T07:07:27;36.97;;;15.27;;
3637;SDS011;1835;50.068;8.154;2023-02-11T07:09:58;34.57;;;14.50;;
3637;SDS011;1835;50.068;8.154;2023-02-11T07:12:28;39.47;;;15.30;;
3637;SDS011;1835;50.068;8.154;2023-02-11T07:14:57;42.63;;;15.60;;
3637;SDS011;1835;50.068;8.154;2023-02-11T07:17:25;38.47;;;16.30;;
3637;SDS011;1835;50.068;8.154;2023-02-11T07:19:53;34.80;;;14.80;;
3637;SDS011;1835;50.068;8.154;2023-02-11T07:22:21;33.60;;;14.43;;
3637;SDS011;1835;50.068;8.154;2023-02-11T07:24:50;39.10;;;13.67;;
3637;SDS011;1835;50.068;8.154;2023-02-11T07:27:18;40.93;;;14.47;;
3637;SDS011;1835;50.068;8.154;2023-02-11T07:29:46;33.43;;;13.57;;
3637;SDS011;1835;50.068;8.154;2023-02-11T07:32:15;39.80;;;14.97;;
3637;SDS011;1835;50.068;8.154;2023-02-11T07:34:43;38.13;;;14.30;;
3637;SDS011;1835;50.068;8.154;2023-02-11T07:37:13;45.10;;;17.43;;
3637;SDS011;1835;50.068;8.154;2023-02-11T07:39:41;41.63;;;14.70;;
3637;SDS011;1835;50.068;8.154;2023-02-11T07:42:09;31.80;;;13.80;;
3637;SDS011;1835;50.068;8.154;2023-02-11T07:44:37;34.93;;;15.80;;
3637;SDS011;1835;50.068;8.154;2023-02-11T07:47:05;35.90;;;14.53;;
3637;SDS011;1835;50.068;8.154;2023-02-11T07:49:34;36.60;;;13.97;;
3637;SDS011;1835;50.068;8.154;2023-02-11T07:52:02;43.53;;;15.20;;
3637;SDS011;1835;50.068;8.154;2023-02-11T07:54:30;42.83;;;16.13;;
3637;SDS011;1835;50.068;8.154;2023-02-11T07:56:59;42.03;;;15.17;;
3637;SDS011;1835;50.068;8.154;2023-02-11T07:59:27;43.40;;;16.00;;
3637;SDS011;1835;50.068;8.154;2023-02-11T08:01:54;33.63;;;14.30;;
3637;SDS011;1835;50.068;8.154;2023-02-11T08:04:23;41.10;;;15.50;;
3637;SDS011;1835;50.068;8.154;2023-02-11T08:06:52;42.80;;;16.00;;
3637;SDS011;1835;50.068;8.154;2023-02-11T08:09:24;38.47;;;14.27;;
3637;SDS011;1835;50.068;8.154;2023-02-11T08:11:53;42.00;;;16.50;;
3637;SDS011;1835;50.068;8.154;2023-02-11T08:14:21;46.40;;;16.10;;
3637;SDS011;1835;50.068;8.154;2023-02-11T08:16:50;35.77;;;15.23;;
3637;SDS011;1835;50.068;8.154;2023-02-11T08:19:18;35.67;;;15.10;;
3637;SDS011;1835;50.068;8.154;2023-02-11T08:21:46;37.43;;;16.07;;
3637;SDS011;1835;50.068;8.154;2023-02-11T08:24:15;41.97;;;17.10;;
3637;SDS011;1835;50.068;8.154;2023-02-11T08:26:43;35.33;;;15.77;;
3637;SDS011;1835;50.068;8.154;2023-02-11T08:29:13;44.33;;;15.37;;
3637;SDS011;1835;50.068;8.154;2023-02-11T08:31:43;39.10;;;15.60;;
3637;SDS011;1835;50.068;8.154;2023-02-11T08:34:14;38.07;;;15.47;;
3637;SDS011;1835;50.068;8.154;2023-02-11T08:36:44;41.37;;;15.00;;
3637;SDS011;1835;50.068;8.154;2023-02-11T08:39:15;43.23;;;17.03;;
3637;SDS011;1835;50.068;8.154;2023-02-11T08:41:47;43.03;;;17.03;;
3637;SDS011;1835;50.068;8.154;2023-02-11T08:44:17;40.40;;;16.50;;
3637;SDS011;1835;50.068;8.154;2023-02-11T08:46:46;49.47;;;19.83;;
3637;SDS011;1835;50.068;8.154;2023-02-11T08:49:15;31.30;;;15.00;;
3637;SDS011;1835;50.068;8.154;2023-02-11T08:51:44;43.83;;;16.10;;
3637;SDS011;1835;50.068;8.154;2023-02-11T08:54:13;51.33;;;17.83;;
3637;SDS011;1835;50.068;8.154;2023-02-11T08:56:42;44.63;;;18.07;;
3637;SDS011;1835;50.068;8.154;2023-02-11T08:59:12;46.07;;;16.67;;
3637;SDS011;1835;50.068;8.154;2023-02-11T09:01:47;44.83;;;19.23;;
3637;SDS011;1835;50.068;8.154;2023-02-11T09:04:15;55.67;;;19.03;;
3637;SDS011;1835;50.068;8.154;2023-02-11T09:06:43;45.07;;;17.70;;
3637;SDS011;1835;50.068;8.154;2023-02-11T09:09:12;41.00;;;19.23;;
3637;SDS011;1835;50.068;8.154;2023-02-11T09:11:43;43.40;;;20.03;;
3637;SDS011;1835;50.068;8.154;2023-02-11T09:14:14;42.67;;;20.67;;
3637;SDS011;1835;50.068;8.154;2023-02-11T09:16:45;46.13;;;19.30;;
3637;SDS011;1835;50.068;8.154;2023-02-11T09:19:14;51.20;;;23.70;;
3637;SDS011;1835;50.068;8.154;2023-02-11T09:21:43;37.10;;;16.50;;
3637;SDS011;1835;50.068;8.154;2023-02-11T09:24:11;42.20;;;17.43;;
3637;SDS011;1835;50.068;8.154;2023-02-11T09:26:39;35.53;;;16.80;;
3637;SDS011;1835;50.068;8.154;2023-02-11T09:29:10;48.30;;;20.57;;
3637;SDS011;1835;50.068;8.154;2023-02-11T09:31:38;59.63;;;18.73;;
3637;SDS011;1835;50.068;8.154;2023-02-11T09:34:07;54.80;;;23.13;;
3637;SDS011;1835;50.068;8.154;2023-02-11T09:36:36;40.30;;;18.50;;
3637;SDS011;1835;50.068;8.154;2023-02-11T09:39:07;40.57;;;18.07;;
3637;SDS011;1835;50.068;8.154;2023-02-11T09:44:55;51.77;;;19.63;;
3637;SDS011;1835;50.068;8.154;2023-02-11T09:47:27;244.20;;;61.37;;
3637;SDS011;1835;50.068;8.154;2023-02-11T09:49:59;107.63;;;31.97;;
3637;SDS011;1835;50.068;8.154;2023-02-11T09:52:32;55.93;;;21.70;;
3637;SDS011;1835;50.068;8.154;2023-02-11T09:55:10;70.30;;;23.50;;
3637;SDS011;1835;50.068;8.154;2023-02-11T09:57:47;72.87;;;24.47;;
3637;SDS011;1835;50.068;8.154;2023-02-11T10:00:20;146.67;;;38.20;;
3637;SDS011;1835;50.068;8.154;2023-02-11T10:02:56;55.73;;;22.03;;
3637;SDS011;1835;50.068;8.154;2023-02-11T10:05:49;87.83;;;25.37;;
3637;SDS011;1835;50.068;8.154;2023-02-11T10:08:33;54.80;;;20.87;;
3637;SDS011;1835;50.068;8.154;2023-02-11T10:11:10;74.47;;;25.50;;
3637;SDS011;1835;50.068;8.154;2023-02-11T10:14:00;59.63;;;20.67;;
3637;SDS011;1835;50.068;8.154;2023-02-11T10:16:42;41.10;;;17.03;;
3637;SDS011;1835;50.068;8.154;2023-02-11T10:19:28;34.27;;;16.93;;
3637;SDS011;1835;50.068;8.154;2023-02-11T10:22:24;31.97;;;14.97;;
3637;SDS011;1835;50.068;8.154;2023-02-11T10:24:58;43.30;;;16.43;;
3637;SDS011;1835;50.068;8.154;2023-02-11T10:27:27;50.33;;;18.73;;
3637;SDS011;1835;50.068;8.154;2023-02-11T10:30:01;41.47;;;15.27;;
3637;SDS011;1835;50.068;8.154;2023-02-11T10:32:37;43.40;;;17.67;;
3637;SDS011;1835;50.068;8.154;2023-02-11T10:35:13;35.20;;;16.13;;
3637;SDS011;1835;50.068;8.154;2023-02-11T10:37:44;30.77;;;15.37;;
3637;SDS011;1835;50.068;8.154;2023-02-11T10:40:13;37.33;;;16.00;;
3637;SDS011;1835;50.068;8.154;2023-02-11T10:42:45;38.10;;;16.93;;
3637;SDS011;1835;50.068;8.154;2023-02-11T10:45:24;44.83;;;16.90;;
3637;SDS011;1835;50.068;8.154;2023-02-11T10:47:58;47.40;;;16.90;;
3637;SDS011;1835;50.068;8.154;2023-02-11T10:50:27;39.60;;;18.80;;
3637;SDS011;1835;50.068;8.154;2023-02-11T10:53:14;36.50;;;14.70;;
3637;SDS011;1835;50.068;8.154;2023-02-11T10:55:49;35.23;;;15.33;;
3637;SDS011;1835;50.068;8.154;2023-02-11T10:58:22;45.20;;;16.53;;
3637;SDS011;1835;50.068;8.154;2023-02-11T11:00:54;40.70;;;15.73;;
3637;SDS011;1835;50.068;8.154;2023-02-11T11:03:25;40.60;;;15.70;;
3637;SDS011;1835;50.068;8.154;2023-02-11T11:05:56;42.67;;;16.10;;
3637;SDS011;1835;50.068;8.154;2023-02-11T11:08:36;28.30;;;13.80;;
3637;SDS011;1835;50.068;8.154;2023-02-11T11:11:08;31.33;;;14.60;;
3637;SDS011;1835;50.068;8.154;2023-02-11T11:13:38;32.13;;;13.87;;
3637;SDS011;1835;50.068;8.154;2023-02-11T11:16:17;33.40;;;13.93;;
3637;SDS011;1835;50.068;8.154;2023-02-11T11:18:49;28.67;;;12.17;;
3637;SDS011;1835;50.068;8.154;2023-02-11T11:21:21;28.83;;;11.33;;
3637;SDS011;1835;50.068;8.154;2023-02-11T11:23:53;39.97;;;14.63;;
3637;SDS011;1835;50.068;8.154;2023-02-11T11:26:24;30.50;;;11.40;;
3637;SDS011;1835;50.068;8.154;2023-02-11T11:28:55;24.13;;;10.63;;
3637;SDS011;1835;50.068;8.154;2023-02-11T11:31:30;35.00;;;13.80;;
3637;SDS011;1835;50.068;8.154;2023-02-11T11:34:05;25.03;;;11.27;;
3637;SDS011;1835;50.068;8.154;2023-02-11T11:36:48;32.07;;;13.93;;
3637;SDS011;1835;50.068;8.154;2023-02-11T11:39:19;29.90;;;14.70;;
3637;SDS011;1835;50.068;8.154;2023-02-11T11:41:51;33.57;;;14.93;;
3637;SDS011;1835;50.068;8.154;2023-02-11T11:44:24;29.90;;;13.70;;
3637;SDS011;1835;50.068;8.154;2023-02-11T11:47:10;31.73;;;13.80;;
3637;SDS011;1835;50.068;8.154;2023-02-11T11:50:04;32.90;;;12.80;;
3637;SDS011;1835;50.068;8.154;2023-02-11T11:52:53;27.00;;;12.73;;
3637;SDS011;1835;50.068;8.154;2023-02-11T11:55:30;22.83;;;10.93;;
3637;SDS011;1835;50.068;8.154;2023-02-11T11:58:04;25.40;;;11.07;;
3637;SDS011;1835;50.068;8.154;2023-02-11T12:00:42;34.73;;;13.17;;
3637;SDS011;1835;50.068;8.154;2023-02-11T12:06:29;18.20;;;8.90;;
3637;SDS011;1835;50.068;8.154;2023-02-11T12:09:08;19.77;;;8.33;;
3637;SDS011;1835;50.068;8.154;2023-02-11T12:14:54;20.00;;;8.87;;
3637;SDS011;1835;50.068;8.154;2023-02-11T12:17:37;20.13;;;8.73;;
3637;SDS011;1835;50.068;8.154;2023-02-11T12:20:22;19.07;;;7.60;;
3637;SDS011;1835;50.068;8.154;2023-02-11T12:23:02;17.73;;;7.77;;
3637;SDS011;1835;50.068;8.154;2023-02-11T12:25:45;13.80;;;6.90;;
3637;SDS011;1835;50.068;8.154;2023-02-11T12:28:24;22.30;;;7.70;;
3637;SDS011;1835;50.068;8.154;2023-02-11T12:31:15;12.80;;;5.93;;
3637;SDS011;1835;50.068;8.154;2023-02-11T12:34:21;14.37;;;6.73;;
3637;SDS011;1835;50.068;8.154;2023-02-11T12:37:08;17.50;;;6.17;;
3637;SDS011;1835;50.068;8.154;2023-02-11T12:39:53;16.17;;;6.53;;
3637;SDS011;1835;50.068;8.154;2023-02-11T12:42:37;18.30;;;7.30;;
3637;SDS011;1835;50.068;8.154;2023-02-11T12:45:48;10.80;;;5.67;;
3637;SDS011;1835;50.068;8.154;2023-02-11T12:51:48;15.47;;;6.20;;
3637;SDS011;1835;50.068;8.154;2023-02-11T12:54:30;17.03;;;6.80;;
3637;SDS011;1835;50.068;8.154;2023-02-11T12:57:06;13.20;;;6.97;;
3637;SDS011;1835;50.068;8.154;2023-02-11T12:59:43;10.77;;;5.80;;
3637;SDS011;1835;50.068;8.154;2023-02-11T13:02:22;11.50;;;5.97;;
3637;SDS011;1835;50.068;8.154;2023-02-11T13:05:03;8.70;;;6.00;;
3637;SDS011;1835;50.068;8.154;2023-02-11T13:07:45;10.87;;;6.10;;
3637;SDS011;1835;50.068;8.154;2023-02-11T13:10:23;13.00;;;6.47;;
3637;SDS011;1835;50.068;8.154;2023-02-11T13:12:55;13.47;;;6.30;;
3637;SDS011;1835;50.068;8.154;2023-02-11T13:15:44;7.83;;;4.57;;
3637;SDS011;1835;50.068;8.154;2023-02-11T13:18:21;12.30;;;6.23;;
3637;SDS011;1835;50.068;8.154;2023-02-11T13:21:17;12.30;;;5.90;;
3637;SDS011;1835;50.068;8.154;2023-02-11T13:24:01;11.83;;;5.97;;
3637;SDS011;1835;50.068;8.154;2023-02-11T13:26:46;10.93;;;5.40;;
3637;SDS011;1835;50.068;8.154;2023-02-11T13:29:32;10.90;;;5.83;;
3637;SDS011;1835;50.068;8.154;2023-02-11T13:32:24;13.37;;;6.73;;
3637;SDS011;1835;50.068;8.154;2023-02-11T13:34:52;12.80;;;6.73;;
3637;SDS011;1835;50.068;8.154;2023-02-11T13:37:24;12.77;;;6.43;;
3637;SDS011;1835;50.068;8.154;2023-02-11T13:39:57;14.90;;;6.40;;
3637;SDS011;1835;50.068;8.154;2023-02-11T13:42:29;11.33;;;6.33;;
3637;SDS011;1835;50.068;8.154;2023-02-11T13:44:59;10.10;;;5.30;;
3637;SDS011;1835;50.068;8.154;2023-02-11T13:47:29;8.37;;;6.00;;
3637;SDS011;1835;50.068;8.154;2023-02-11T13:50:00;10.67;;;6.10;;
3637;SDS011;1835;50.068;8.154;2023-02-11T13:52:33;9.73;;;5.80;;
3637;SDS011;1835;50.068;8.154;2023-02-11T13:55:05;11.57;;;5.50;;
3637;SDS011;1835;50.068;8.154;2023-02-11T13:57:42;18.27;;;5.73;;
3637;SDS011;1835;50.068;8.154;2023-02-11T14:03:24;11.00;;;6.17;;
3637;SDS011;1835;50.068;8.154;2023-02-11T14:06:26;9.10;;;5.30;;
3637;SDS011;1835;50.068;8.154;2023-02-11T14:09:39;14.07;;;6.20;;
3637;SDS011;1835;50.068;8.154;2023-02-11T14:15:24;13.00;;;6.73;;
3637;SDS011;1835;50.068;8.154;2023-02-11T14:17:53;10.03;;;5.20;;
3637;SDS011;1835;50.068;8.154;2023-02-11T14:20:32;12.97;;;6.03;;
3637;SDS011;1835;50.068;8.154;2023-02-11T14:23:04;9.07;;;4.87;;
3637;SDS011;1835;50.068;8.154;2023-02-11T14:25:33;14.00;;;7.10;;
3637;SDS011;1835;50.068;8.154;2023-02-11T14:28:05;8.87;;;5.60;;
3637;SDS011;1835;50.068;8.154;2023-02-11T14:30:47;9.07;;;5.30;;
3637;SDS011;1835;50.068;8.154;2023-02-11T14:36:32;19.73;;;6.53;;
3637;SDS011;1835;50.068;8.154;2023-02-11T14:39:21;91.37;;;33.73;;
3637;SDS011;1835;50.068;8.154;2023-02-11T14:42:03;21.17;;;8.60;;
3637;SDS011;1835;50.068;8.154;2023-02-11T14:44:32;17.60;;;9.30;;
3637;SDS011;1835;50.068;8.154;2023-02-11T14:47:02;16.40;;;7.83;;
3637;SDS011;1835;50.068;8.154;2023-02-11T14:49:32;19.70;;;10.20;;
3637;SDS011;1835;50.068;8.154;2023-02-11T14:52:03;13.73;;;5.90;;
3637;SDS011;1835;50.068;8.154;2023-02-11T14:54:42;14.53;;;6.93;;
3637;SDS011;1835;50.068;8.154;2023-02-11T14:57:13;18.40;;;7.10;;
3637;SDS011;1835;50.068;8.154;2023-02-11T14:59:51;14.83;;;7.40;;
3637;SDS011;1835;50.068;8.154;2023-02-11T15:02:29;11.17;;;5.87;;
3637;SDS011;1835;50.068;8.154;2023-02-11T15:05:14;9.57;;;5.97;;
3637;SDS011;1835;50.068;8.154;2023-02-11T15:07:46;11.00;;;6.00;;
3637;SDS011;1835;50.068;8.154;2023-02-11T15:10:18;24.17;;;11.60;;
3637;SDS011;1835;50.068;8.154;2023-02-11T15:12:55;12.37;;;6.67;;
3637;SDS011;1835;50.068;8.154;2023-02-11T15:15:26;18.20;;;9.17;;
3637;SDS011;1835;50.068;8.154;2023-02-11T15:17:58;12.33;;;6.93;;
3637;SDS011;1835;50.068;8.154;2023-02-11T15:20:30;10.83;;;5.40;;
3637;SDS011;1835;50.068;8.154;2023-02-11T15:23:01;10.23;;;6.67;;
3637;SDS011;1835;50.068;8.154;2023-02-11T15:25:33;14.50;;;6.03;;
3637;SDS011;1835;50.068;8.154;2023-02-11T15:28:14;12.83;;;5.40;;
3637;SDS011;1835;50.068;8.154;2023-02-11T15:30:56;8.63;;;4.43;;
3637;SDS011;1835;50.068;8.154;2023-02-11T15:33:28;10.47;;;4.60;;
3637;SDS011;1835;50.068;8.154;2023-02-11T15:35:58;8.40;;;4.67;;
3637;SDS011;1835;50.068;8.154;2023-02-11T15:38:27;8.50;;;3.77;;
3637;SDS011;1835;50.068;8.154;2023-02-11T15:40:57;8.20;;;5.23;;
3637;SDS011;1835;50.068;8.154;2023-02-11T15:43:40;7.77;;;4.30;;
3637;SDS011;1835;50.068;8.154;2023-02-11T15:46:12;10.93;;;3.90;;
3637;SDS011;1835;50.068;8.154;2023-02-11T15:48:45;5.43;;;3.97;;
3637;SDS011;1835;50.068;8.154;2023-02-11T15:51:18;7.20;;;4.07;;
3637;SDS011;1835;50.068;8.154;2023-02-11T15:53:48;8.03;;;4.60;;